createdAt,value
2023-04-01T00:01:49.653Z,2.47
2023-04-01T00:04:16.928Z,2.80
2023-04-01T00:06:43.988Z,1.80
2023-04-01T00:09:11.081Z,0.95
2023-04-01T00:11:38.368Z,1.75
2023-04-01T00:14:05.705Z,0.95
2023-04-01T00:16:32.686Z,1.57
2023-04-01T00:19:01.093Z,2.62
2023-04-01T00:21:28.130Z,1.73
2023-04-01T00:23:55.178Z,0.85
2023-04-01T00:26:23.057Z,1.62
2023-04-01T00:28:50.928Z,1.83
2023-04-01T00:31:18.378Z,2.08
2023-04-01T00:33:45.729Z,1.55
2023-04-01T00:36:22.616Z,2.50
2023-04-01T00:38:51.427Z,1.92
2023-04-01T00:41:20.469Z,2.20
2023-04-01T00:43:50.081Z,1.73
2023-04-01T00:46:17.182Z,1.60
2023-04-01T00:48:56.278Z,1.85
2023-04-01T00:51:28.744Z,1.35
2023-04-01T00:53:59.013Z,1.50
2023-04-01T00:56:33.945Z,3.67
2023-04-01T00:59:25.895Z,1.42
2023-04-01T01:01:53.626Z,1.37
2023-04-01T01:04:29.203Z,2.17
2023-04-01T01:07:21.214Z,1.10
2023-04-01T01:09:57.014Z,1.73
2023-04-01T01:12:36.225Z,2.55
2023-04-01T01:15:03.058Z,4.03
2023-04-01T01:17:41.921Z,1.55
2023-04-01T01:20:35.460Z,2.80
2023-04-01T01:23:43.189Z,2.95
2023-04-01T01:26:48.056Z,2.17
2023-04-01T01:29:45.786Z,1.33
2023-04-01T01:32:31.806Z,1.52
2023-04-01T01:35:25.515Z,2.17
2023-04-01T01:37:57.986Z,3.62
2023-04-01T01:40:27.823Z,1.77
2023-04-01T01:42:59.254Z,1.67
2023-04-01T01:45:28.117Z,1.60
2023-04-01T01:47:57.572Z,1.90
2023-04-01T01:50:27.241Z,2.37
2023-04-01T01:53:08.459Z,3.58
2023-04-01T01:55:38.142Z,2.35
2023-04-01T01:58:21.020Z,3.17
2023-04-01T02:00:58.983Z,2.53
2023-04-01T02:03:28.149Z,2.12
2023-04-01T02:05:57.882Z,3.20
2023-04-01T02:08:52.848Z,2.08
2023-04-01T02:11:27.139Z,2.97
2023-04-01T02:14:03.931Z,1.70
2023-04-01T02:16:53.643Z,3.15
2023-04-01T02:19:23.986Z,3.28
2023-04-01T02:21:55.383Z,2.65
2023-04-01T02:24:25.901Z,2.33
2023-04-01T02:26:53.522Z,1.87
2023-04-01T02:29:26.162Z,1.35
2023-04-01T02:31:54.576Z,1.90
2023-04-01T02:34:23.818Z,1.87
2023-04-01T02:36:51.381Z,1.98
2023-04-01T02:39:19.392Z,1.97
2023-04-01T02:41:47.173Z,2.33
2023-04-01T02:44:16.248Z,2.42
2023-04-01T02:46:43.830Z,3.55
2023-04-01T02:49:11.910Z,2.70
2023-04-01T02:51:39.205Z,3.13
2023-04-01T02:54:06.338Z,2.25
2023-04-01T02:56:33.334Z,2.03
2023-04-01T02:59:00.371Z,2.67
2023-04-01T03:01:27.558Z,1.77
2023-04-01T03:03:54.911Z,0.50
2023-04-01T03:06:22.551Z,3.58
2023-04-01T03:08:49.522Z,1.60
2023-04-01T03:11:17.453Z,2.03
2023-04-01T03:13:44.635Z,1.23
2023-04-01T03:16:11.534Z,3.60
2023-04-01T03:18:38.395Z,0.98
2023-04-01T03:21:15.897Z,1.48
2023-04-01T03:23:43.128Z,1.40
2023-04-01T03:26:10.030Z,1.15
2023-04-01T03:28:37.000Z,2.13
2023-04-01T03:31:04.058Z,1.35
2023-04-01T03:33:31.498Z,1.98
2023-04-01T03:35:58.755Z,1.83
2023-04-01T03:38:25.742Z,2.87
2023-04-01T03:40:52.731Z,0.90
2023-04-01T03:43:19.603Z,0.73
2023-04-01T03:45:48.213Z,1.42
2023-04-01T03:48:16.410Z,0.73
2023-04-01T03:50:43.981Z,1.35
2023-04-01T03:53:11.845Z,2.00
2023-04-01T03:55:39.418Z,1.62
2023-04-01T03:58:07.976Z,0.88
2023-04-01T04:00:35.901Z,1.40
2023-04-01T04:03:03.682Z,0.88
2023-04-01T04:05:31.485Z,1.30
2023-04-01T04:07:58.717Z,3.37
2023-04-01T04:10:26.358Z,1.60
2023-04-01T04:12:53.826Z,1.65
2023-04-01T04:15:20.667Z,4.07
2023-04-01T04:17:48.463Z,2.97
2023-04-01T04:20:16.128Z,0.75
2023-04-01T04:22:43.712Z,2.55
2023-04-01T04:25:10.671Z,4.30
2023-04-01T04:27:37.822Z,4.18
2023-04-01T04:30:06.994Z,2.90
2023-04-01T04:32:34.041Z,1.95
2023-04-01T04:35:01.033Z,1.23
2023-04-01T04:37:28.302Z,1.23
2023-04-01T04:39:55.613Z,2.22
2023-04-01T04:42:22.625Z,1.57
2023-04-01T04:44:49.589Z,1.92
2023-04-01T04:47:16.526Z,0.68
2023-04-01T04:49:43.657Z,1.67
2023-04-01T04:52:10.915Z,2.72
2023-04-01T04:54:37.831Z,2.13
2023-04-01T04:57:05.110Z,2.70
2023-04-01T04:59:32.510Z,1.50
2023-04-01T05:01:59.565Z,0.93
2023-04-01T05:04:26.478Z,2.15
2023-04-01T05:06:53.339Z,1.27
2023-04-01T05:09:20.665Z,1.20
2023-04-01T05:11:47.932Z,2.78
2023-04-01T05:14:17.266Z,2.12
2023-04-01T05:16:44.757Z,3.33
2023-04-01T05:19:11.982Z,2.97
2023-04-01T05:21:38.823Z,1.70
2023-04-01T05:24:10.718Z,0.88
2023-04-01T05:26:38.359Z,1.85
2023-04-01T05:29:05.996Z,2.08
2023-04-01T05:31:33.047Z,1.90
2023-04-01T05:34:00.180Z,1.33
2023-04-01T05:36:27.049Z,1.02
2023-04-01T05:38:57.429Z,2.87
2023-04-01T05:41:24.324Z,1.17
2023-04-01T05:43:51.389Z,1.20
2023-04-01T05:46:18.429Z,1.20
2023-04-01T05:48:46.031Z,2.35
2023-04-01T05:51:15.718Z,0.90
2023-04-01T05:53:43.636Z,1.58
2023-04-01T05:56:11.027Z,1.57
2023-04-01T05:58:38.622Z,1.75
2023-04-01T06:01:14.132Z,1.25
2023-04-01T06:03:43.880Z,1.23
2023-04-01T06:06:29.332Z,1.33
2023-04-01T06:08:58.564Z,1.17
2023-04-01T06:11:44.213Z,1.10
2023-04-01T06:14:20.488Z,1.08
2023-04-01T06:17:12.526Z,3.85
2023-04-01T06:20:06.209Z,1.15
2023-04-01T06:23:11.496Z,1.03
2023-04-01T06:26:00.953Z,1.67
2023-04-01T06:28:56.074Z,1.67
2023-04-01T06:31:40.060Z,3.03
2023-04-01T06:34:07.707Z,1.87
2023-04-01T06:36:51.636Z,0.80
2023-04-01T06:39:34.185Z,1.20
2023-04-01T06:42:25.988Z,3.12
2023-04-01T06:45:19.868Z,0.93
2023-04-01T06:47:59.588Z,0.93
2023-04-01T06:50:48.229Z,2.33
2023-04-01T06:53:43.548Z,1.10
2023-04-01T06:56:15.100Z,1.00
2023-04-01T06:58:54.204Z,1.02
2023-04-01T07:01:45.491Z,2.47
2023-04-01T07:04:19.126Z,1.40
2023-04-01T07:06:57.756Z,2.28
2023-04-01T07:09:40.574Z,2.03
2023-04-01T07:12:20.013Z,2.25
2023-04-01T07:14:50.866Z,1.42
2023-04-01T07:17:28.852Z,5.77
2023-04-01T07:19:58.837Z,1.83
2023-04-01T07:22:37.100Z,1.90
2023-04-01T07:25:19.798Z,0.90
2023-04-01T07:27:47.557Z,0.95
2023-04-01T07:30:20.618Z,2.93
2023-04-01T07:32:55.700Z,2.25
2023-04-01T07:35:37.332Z,1.17
2023-04-01T07:38:07.461Z,1.33
2023-04-01T07:40:51.504Z,1.42
2023-04-01T07:43:46.148Z,2.70
2023-04-01T07:46:19.048Z,0.90
2023-04-01T07:48:59.502Z,0.98
2023-04-01T07:51:47.018Z,2.10
2023-04-01T07:54:27.408Z,1.25
2023-04-01T07:57:18.117Z,1.13
2023-04-01T08:00:15.549Z,1.52
2023-04-01T08:03:02.740Z,1.30
2023-04-01T08:05:43.956Z,2.30
2023-04-01T08:08:26.360Z,2.17
2023-04-01T08:11:02.740Z,1.10
2023-04-01T08:13:52.699Z,2.03
2023-04-01T08:16:31.974Z,2.05
2023-04-01T08:19:15.648Z,1.50
2023-04-01T08:21:46.242Z,1.00
2023-04-01T08:24:44.368Z,1.67
2023-04-01T08:27:33.889Z,1.23
2023-04-01T08:30:05.409Z,1.55
2023-04-01T08:32:44.956Z,1.75
2023-04-01T08:35:32.086Z,1.12
2023-04-01T08:38:07.277Z,1.77
2023-04-01T08:40:53.208Z,1.75
2023-04-01T08:43:43.822Z,2.22
2023-04-01T08:46:41.291Z,1.48
2023-04-01T08:49:20.456Z,1.35
2023-04-01T08:52:13.204Z,1.27
2023-04-01T08:55:26.546Z,2.00
2023-04-01T08:57:59.296Z,1.65
2023-04-01T09:00:49.229Z,0.62
2023-04-01T09:03:56.692Z,1.20
2023-04-01T09:06:26.957Z,1.57
2023-04-01T09:09:10.871Z,1.83
2023-04-01T09:12:17.013Z,1.52
2023-04-01T09:14:43.951Z,3.20
2023-04-01T09:17:45.475Z,1.02
2023-04-01T09:33:06.840Z,3.42
2023-04-01T09:35:55.504Z,2.90
2023-04-01T09:38:38.520Z,1.12
2023-04-01T09:41:14.861Z,1.95
2023-04-01T09:44:09.847Z,2.22
2023-04-01T09:46:58.694Z,3.35
2023-04-01T09:49:40.749Z,1.67
2023-04-01T09:52:16.921Z,1.75
2023-04-01T09:55:21.152Z,1.95
2023-04-01T09:58:13.170Z,1.65
2023-04-01T10:00:56.527Z,1.77
2023-04-01T10:03:38.938Z,1.33
2023-04-01T10:06:15.064Z,1.58
2023-04-01T10:08:53.336Z,2.87
2023-04-01T10:11:34.370Z,4.43
2023-04-01T10:14:32.719Z,1.67
2023-04-01T10:17:23.376Z,2.23
2023-04-01T10:20:21.650Z,2.67
2023-04-01T10:23:19.716Z,4.15
2023-04-01T10:26:10.893Z,2.15
2023-04-01T10:28:54.805Z,2.67
2023-04-01T10:31:56.875Z,2.90
2023-04-01T10:34:51.785Z,5.30
2023-04-01T10:37:46.723Z,2.20
2023-04-01T10:40:27.264Z,1.75
2023-04-01T10:43:13.019Z,3.37
2023-04-01T10:45:55.934Z,3.57
2023-04-01T10:48:33.993Z,4.30
2023-04-01T10:51:29.047Z,1.40
2023-04-01T10:54:42.406Z,1.42
2023-04-01T10:57:36.938Z,2.25
2023-04-01T11:00:22.060Z,1.53
2023-04-01T11:03:21.371Z,1.60
2023-04-01T11:06:03.968Z,2.08
2023-04-01T11:08:52.524Z,3.25
2023-04-01T11:11:53.550Z,2.10
2023-04-01T11:14:38.647Z,1.53
2023-04-01T11:17:43.025Z,2.90
2023-04-01T11:21:07.493Z,2.08
2023-04-01T11:24:04.932Z,1.37
2023-04-01T11:27:23.778Z,1.33
2023-04-01T11:30:06.379Z,2.13
2023-04-01T11:32:48.967Z,1.65
2023-04-01T11:35:34.072Z,2.10
2023-04-01T11:38:19.655Z,0.95
2023-04-01T11:40:57.267Z,1.08
2023-04-01T11:43:43.777Z,1.70
2023-04-01T11:46:23.302Z,4.68
2023-04-01T11:49:22.080Z,1.25
2023-04-01T11:52:05.125Z,2.47
2023-04-01T11:54:46.830Z,2.85
2023-04-01T11:57:26.268Z,2.67
2023-04-01T11:59:58.800Z,2.15
2023-04-01T12:02:53.788Z,1.35
2023-04-01T12:06:13.493Z,1.90
2023-04-01T12:09:02.347Z,1.60
2023-04-01T12:11:32.173Z,5.97
2023-04-01T12:14:21.469Z,2.47
2023-04-01T12:17:07.381Z,2.92
2023-04-01T12:20:03.448Z,1.67
2023-04-01T12:22:44.955Z,15.32
2023-04-01T12:25:42.033Z,3.00
2023-04-01T12:28:24.284Z,1.23
2023-04-01T12:30:51.507Z,1.85
2023-04-01T12:33:43.525Z,3.37
2023-04-01T12:36:41.441Z,2.72
2023-04-01T12:39:40.511Z,3.13
2023-04-01T12:42:35.620Z,2.62
2023-04-01T12:45:23.468Z,2.70
2023-04-01T12:48:19.008Z,1.30
2023-04-01T12:51:05.733Z,0.70
2023-04-01T12:53:55.913Z,1.00
2023-04-01T12:56:31.827Z,1.10
2023-04-01T12:59:10.286Z,1.50
2023-04-01T13:02:00.905Z,0.50
2023-04-01T13:04:55.792Z,1.35
2023-04-01T13:07:39.516Z,0.80
2023-04-01T13:10:09.617Z,1.85
2023-04-01T13:12:59.932Z,0.90
2023-04-01T13:15:33.547Z,1.23
2023-04-01T13:18:25.779Z,0.62
2023-04-01T13:21:18.086Z,2.13
2023-04-01T13:24:01.554Z,0.88
2023-04-01T13:26:37.972Z,1.35
2023-04-01T13:29:43.592Z,1.60
2023-04-01T13:35:39.859Z,1.13
2023-04-01T13:38:16.178Z,1.62
2023-04-01T13:41:03.964Z,1.45
2023-04-01T13:43:34.152Z,0.90
2023-04-01T13:46:04.572Z,1.10
2023-04-01T13:48:47.612Z,1.93
2023-04-01T13:51:24.055Z,1.87
2023-04-01T13:54:22.367Z,0.70
2023-04-01T13:57:07.610Z,1.95
2023-04-01T14:00:17.946Z,1.15
2023-04-01T14:03:09.432Z,1.50
2023-04-01T14:06:04.746Z,1.80
2023-04-01T14:09:05.647Z,1.20
2023-04-01T14:11:52.762Z,1.45
2023-04-01T14:14:46.033Z,1.48
2023-04-01T14:17:24.834Z,1.97
2023-04-01T14:20:18.150Z,1.25
2023-04-01T14:23:22.636Z,1.55
2023-04-01T14:26:15.100Z,1.35
2023-04-01T14:29:06.212Z,1.50
2023-04-01T14:31:56.534Z,1.57
2023-04-01T14:34:45.641Z,1.40
2023-04-01T14:37:28.121Z,2.33
2023-04-01T14:40:14.270Z,1.17
2023-04-01T14:42:56.834Z,1.67
2023-04-01T14:45:33.034Z,1.33
2023-04-01T14:48:38.915Z,1.65
2023-04-01T14:51:40.482Z,1.50
2023-04-01T14:54:23.646Z,0.60
2023-04-01T14:57:02.411Z,1.05
2023-04-01T14:59:31.508Z,1.60
2023-04-01T15:02:14.131Z,6.05
2023-04-01T15:05:05.904Z,1.17
2023-04-01T15:08:06.372Z,0.88
2023-04-01T15:10:36.751Z,0.82
2023-04-01T15:13:20.105Z,3.00
2023-04-01T15:16:01.268Z,1.30
2023-04-01T15:18:57.534Z,2.00
2023-04-01T15:22:02.849Z,0.50
2023-04-01T15:25:03.619Z,2.10
2023-04-01T15:27:33.475Z,1.33
2023-04-01T15:30:12.927Z,3.05
2023-04-01T15:32:58.367Z,2.55
2023-04-01T15:35:28.730Z,3.17
2023-04-01T15:37:56.123Z,0.77
2023-04-01T15:40:38.731Z,0.80
2023-04-01T15:43:33.207Z,1.00
2023-04-01T15:46:18.330Z,0.73
2023-04-01T15:48:57.742Z,1.98
2023-04-01T15:51:40.029Z,1.20
2023-04-01T15:54:16.656Z,1.77
2023-04-01T15:56:46.373Z,2.97
2023-04-01T15:59:14.082Z,3.08
2023-04-01T16:01:59.574Z,4.53
2023-04-01T16:04:57.834Z,3.60
2023-04-01T16:07:25.568Z,1.80
2023-04-01T16:10:10.651Z,1.60
2023-04-01T16:12:59.723Z,2.03
2023-04-01T16:15:36.760Z,1.65
2023-04-01T16:18:28.595Z,2.95
2023-04-01T16:21:02.310Z,1.00
2023-04-01T16:23:51.514Z,1.80
2023-04-01T16:26:36.540Z,2.53
2023-04-01T16:29:17.276Z,2.03
2023-04-01T16:32:03.325Z,1.25
2023-04-01T16:34:37.031Z,1.83
2023-04-01T16:37:14.016Z,3.42
2023-04-01T16:39:54.197Z,2.30
2023-04-01T16:42:34.209Z,1.17
2023-04-01T16:45:19.089Z,0.60
2023-04-01T16:47:55.475Z,1.87
2023-04-01T16:50:28.639Z,2.58
2023-04-01T16:53:13.088Z,2.42
2023-04-01T16:55:54.869Z,1.05
2023-04-01T16:58:41.246Z,2.03
2023-04-01T17:01:16.314Z,2.40
2023-04-01T17:03:50.680Z,1.23
2023-04-01T17:06:30.640Z,3.03
2023-04-01T17:09:23.388Z,2.47
2023-04-01T17:11:59.476Z,1.60
2023-04-01T17:15:03.606Z,2.83
2023-04-01T17:17:37.625Z,2.28
2023-04-01T17:20:08.778Z,2.37
2023-04-01T17:23:00.582Z,1.87
2023-04-01T17:26:08.800Z,3.10
2023-04-01T17:28:43.519Z,0.90
2023-04-01T17:31:33.034Z,2.10
2023-04-01T17:34:42.450Z,2.62
2023-04-01T17:37:33.465Z,4.12
2023-04-01T17:40:33.521Z,5.22
2023-04-01T17:43:34.906Z,4.23
2023-04-01T17:46:27.193Z,4.62
2023-04-01T17:49:22.142Z,3.45
2023-04-01T17:51:59.057Z,3.47
2023-04-01T17:55:00.463Z,2.87
2023-04-01T17:57:34.506Z,2.00
2023-04-01T18:00:15.080Z,3.90
2023-04-01T18:02:57.920Z,2.92
2023-04-01T18:05:53.320Z,4.03
2023-04-01T18:08:46.236Z,2.40
2023-04-01T18:11:41.062Z,4.00
2023-04-01T18:14:28.088Z,3.20
2023-04-01T18:17:29.124Z,1.42
2023-04-01T18:20:24.945Z,3.55
2023-04-01T18:23:00.165Z,2.20
2023-04-01T18:25:39.888Z,3.13
2023-04-01T18:28:22.341Z,2.30
2023-04-01T18:31:19.853Z,3.58
2023-04-01T18:34:22.175Z,4.75
2023-04-01T18:36:57.045Z,3.03
2023-04-01T18:39:54.569Z,2.90
2023-04-01T18:42:42.818Z,3.62
2023-04-01T18:45:29.567Z,2.22
2023-04-01T18:48:22.801Z,2.78
2023-04-01T18:50:59.047Z,2.78
2023-04-01T18:53:32.220Z,3.93
2023-04-01T18:56:04.278Z,3.10
2023-04-01T18:58:55.208Z,5.90
2023-04-01T19:01:41.394Z,6.12
2023-04-01T19:04:35.093Z,5.12
2023-04-01T19:07:24.899Z,2.73
2023-04-01T19:09:54.025Z,5.65
2023-04-01T19:12:49.530Z,3.42
2023-04-01T19:15:36.744Z,3.85
2023-04-01T19:18:35.030Z,4.25
2023-04-01T19:21:21.437Z,4.80
2023-04-01T19:24:22.271Z,8.13
2023-04-01T19:27:19.556Z,3.67
2023-04-01T19:30:00.156Z,3.60
2023-04-01T19:32:33.964Z,2.97
2023-04-01T19:35:37.107Z,2.17
2023-04-01T19:38:13.877Z,3.33
2023-04-01T19:41:06.170Z,3.20
2023-04-01T19:43:42.924Z,3.22
2023-04-01T19:46:29.071Z,3.30
2023-04-01T19:49:06.063Z,4.33
2023-04-01T19:51:47.197Z,3.90
2023-04-01T19:54:44.832Z,3.05
2023-04-01T19:57:27.888Z,5.30
2023-04-01T20:00:09.795Z,11.82
2023-04-01T20:03:04.976Z,10.90
2023-04-01T20:05:48.162Z,7.55
2023-04-01T20:08:30.592Z,11.05
2023-04-01T20:11:20.745Z,8.75
2023-04-01T20:13:57.767Z,8.23
2023-04-01T20:16:40.093Z,8.53
2023-04-01T20:19:11.764Z,6.90
2023-04-01T20:21:48.200Z,8.88
2023-04-01T20:24:16.300Z,5.90
2023-04-01T20:27:01.997Z,11.15
2023-04-01T20:30:07.260Z,8.33
2023-04-01T20:32:54.958Z,3.17
2023-04-01T20:35:39.007Z,2.65
2023-04-01T20:38:34.103Z,2.40
2023-04-01T20:41:14.664Z,2.70
2023-04-01T20:44:07.356Z,5.57
2023-04-01T20:46:53.409Z,2.60
2023-04-01T20:49:42.335Z,4.03
2023-04-01T20:52:23.891Z,4.28
2023-04-01T20:55:19.483Z,3.58
2023-04-01T20:58:38.868Z,5.73
2023-04-01T21:01:12.385Z,3.15
2023-04-01T21:04:10.576Z,3.25
2023-04-01T21:06:45.065Z,4.37
2023-04-01T21:09:50.419Z,5.35
2023-04-01T21:12:41.154Z,3.83
2023-04-01T21:15:22.945Z,3.62
2023-04-01T21:18:12.364Z,6.50
2023-04-01T21:21:07.643Z,4.50
2023-04-01T21:23:55.758Z,8.13
2023-04-01T21:26:44.572Z,4.60
2023-04-01T21:29:45.053Z,5.25
2023-04-01T21:32:33.929Z,4.78
2023-04-01T21:35:25.979Z,5.37
2023-04-01T21:38:03.854Z,4.05
2023-04-01T21:40:57.617Z,5.80
2023-04-01T21:44:00.197Z,7.18
2023-04-01T21:46:56.228Z,6.05
2023-04-01T21:49:44.984Z,6.35
2023-04-01T21:52:44.584Z,6.22
2023-04-01T21:55:30.740Z,4.30
2023-04-01T21:58:19.280Z,6.20
2023-04-01T22:01:14.160Z,6.75
2023-04-01T22:03:58.646Z,6.60
2023-04-01T22:06:47.867Z,6.45
2023-04-01T22:09:36.282Z,5.03
2023-04-01T22:12:16.145Z,4.82
2023-04-01T22:14:54.072Z,5.12
2023-04-01T22:17:37.738Z,5.65
2023-04-01T22:20:17.014Z,5.87
2023-04-01T22:23:21.771Z,5.43
2023-04-01T22:26:03.822Z,6.32
2023-04-01T22:28:37.635Z,5.22
2023-04-01T22:31:07.963Z,7.97
2023-04-01T22:33:59.985Z,5.30
2023-04-01T22:36:41.329Z,8.43
2023-04-01T22:39:46.327Z,8.13
2023-04-01T22:42:31.851Z,11.38
2023-04-01T22:45:08.520Z,22.17
2023-04-01T22:47:48.620Z,17.27
2023-04-01T22:50:29.183Z,17.00
2023-04-01T22:53:16.288Z,20.67
2023-04-01T22:55:52.843Z,16.52
2023-04-01T22:58:31.299Z,12.98
2023-04-01T23:01:07.558Z,13.23
2023-04-01T23:03:42.038Z,10.47
2023-04-01T23:06:19.973Z,19.27
2023-04-01T23:09:01.978Z,13.45
2023-04-01T23:11:44.450Z,11.93
2023-04-01T23:14:30.154Z,10.48
2023-04-01T23:17:02.919Z,11.47
2023-04-01T23:19:43.011Z,11.48
2023-04-01T23:22:10.418Z,11.88
2023-04-01T23:24:48.874Z,10.18
2023-04-01T23:27:38.618Z,10.07
2023-04-01T23:30:52.811Z,9.00
2023-04-01T23:33:20.297Z,10.50
2023-04-01T23:36:06.561Z,7.65
2023-04-01T23:38:44.968Z,6.25
2023-04-01T23:41:29.032Z,7.57
2023-04-01T23:44:06.912Z,8.13
2023-04-01T23:46:36.617Z,7.30
2023-04-01T23:49:07.753Z,6.32
2023-04-01T23:51:40.659Z,6.80
2023-04-01T23:55:04.260Z,5.78
2023-04-01T23:57:34.464Z,4.70
